Time;durP1;ratioP1;P1;durP2;ratioP2;P2;SDS_P1;SDS_P2;PMS_P1;PMS_P2;Temp;Humidity;BMP_temperature;BMP_pressure;BME280_temperature;BME280_humidity;BME280_pressure;Samples;Min_cycle;Max_cycle;Signal;HPM_P1;HPM_P2
2022/09/06 00:00:55;;;;;;;5.13;2.20;;;;;;;;;;5007838;28;20445;-81
2022/09/06 00:03:22;;;;;;;2.73;2.50;;;;;;;;;;5004298;28;20469;-78
2022/09/06 00:05:50;;;;;;;2.00;1.87;;;;;;;;;;5004517;28;20435;-88
2022/09/06 00:08:18;;;;;;;2.17;1.90;;;;;;;;;;5007532;28;20455;-82
2022/09/06 00:10:45;;;;;;;1.90;1.80;;;;;;;;;;4998940;28;20541;-86
2022/09/06 00:13:13;;;;;;;4.37;3.10;;;;;;;;;;5006734;28;20467;-83
2022/09/06 00:15:40;;;;;;;3.30;2.60;;;;;;;;;;4998529;28;20443;-82
2022/09/06 00:18:07;;;;;;;3.40;2.30;;;;;;;;;;5003065;28;20480;-78
2022/09/06 00:20:35;;;;;;;4.23;3.13;;;;;;;;;;5006280;28;20458;-80
2022/09/06 00:23:05;;;;;;;3.50;2.70;;;;;;;;;;5007714;28;20462;-79
2022/09/06 00:25:33;;;;;;;4.93;3.10;;;;;;;;;;5002638;28;20530;-80
2022/09/06 00:28:01;;;;;;;4.33;3.50;;;;;;;;;;5001964;28;20490;-77
2022/09/06 00:30:29;;;;;;;5.67;3.40;;;;;;;;;;5006694;28;20484;-80
2022/09/06 00:32:57;;;;;;;5.00;4.30;;;;;;;;;;5002206;28;20459;-79
2022/09/06 00:35:25;;;;;;;7.90;3.67;;;;;;;;;;4999974;28;20571;-79
2022/09/06 00:37:52;;;;;;;4.70;3.53;;;;;;;;;;5002981;28;20573;-80
2022/09/06 00:40:21;;;;;;;6.37;3.30;;;;;;;;;;5006468;28;20435;-83
2022/09/06 00:42:48;;;;;;;4.50;3.70;;;;;;;;;;5005821;28;20469;-80
2022/09/06 00:45:16;;;;;;;5.67;3.90;;;;;;;;;;5008540;28;20916;-81
2022/09/06 00:47:43;;;;;;;4.40;3.37;;;;;;;;;;5003856;28;20966;-78
2022/09/06 00:50:13;;;;;;;5.50;3.60;;;;;;;;;;4993226;28;20462;-83
2022/09/06 00:52:40;;;;;;;5.13;4.20;;;;;;;;;;4999103;28;20458;-80
2022/09/06 00:55:08;;;;;;;5.67;3.97;;;;;;;;;;5004171;28;20444;-82
2022/09/06 00:57:37;;;;;;;6.83;4.40;;;;;;;;;;4999553;28;20485;-80
2022/09/06 01:00:05;;;;;;;6.13;4.40;;;;;;;;;;4994416;28;20794;-84
2022/09/06 01:02:32;;;;;;;5.13;4.53;;;;;;;;;;4993804;28;20448;-80
2022/09/06 01:04:59;;;;;;;5.20;3.97;;;;;;;;;;5006179;28;20954;-80
2022/09/06 01:07:33;;;;;;;5.77;4.10;;;;;;;;;;5008450;28;20784;-79
2022/09/06 01:10:08;;;;;;;4.70;4.27;;;;;;;;;;5002090;28;20446;-83
2022/09/06 01:12:42;;;;;;;4.53;3.77;;;;;;;;;;4991184;28;20488;-82
2022/09/06 01:15:14;;;;;;;5.80;3.80;;;;;;;;;;5000666;28;20448;-82
2022/09/06 01:17:49;;;;;;;6.63;4.20;;;;;;;;;;5007384;28;20468;-82
2022/09/06 01:20:28;;;;;;;7.60;4.73;;;;;;;;;;4994111;28;20553;-82
2022/09/06 01:23:10;;;;;;;6.97;4.57;;;;;;;;;;4999065;28;20574;-80
2022/09/06 01:25:39;;;;;;;5.97;4.00;;;;;;;;;;4994394;28;20447;-81
2022/09/06 01:28:21;;;;;;;7.20;5.07;;;;;;;;;;4999892;28;20809;-78
2022/09/06 01:30:51;;;;;;;4.67;4.17;;;;;;;;;;5007710;28;20440;-80
2022/09/06 01:33:23;;;;;;;5.13;3.93;;;;;;;;;;4999739;28;20536;-79
2022/09/06 01:35:53;;;;;;;6.03;4.13;;;;;;;;;;5004483;28;20445;-82
2022/09/06 01:38:20;;;;;;;5.00;3.80;;;;;;;;;;5003150;28;20475;-81
2022/09/06 01:40:47;;;;;;;4.90;3.70;;;;;;;;;;5003612;28;20446;-79
2022/09/06 01:43:19;;;;;;;4.80;4.40;;;;;;;;;;4992295;28;20462;-81
2022/09/06 01:46:01;;;;;;;4.87;3.97;;;;;;;;;;5004627;28;20453;-80
2022/09/06 01:48:36;;;;;;;4.93;4.40;;;;;;;;;;4996524;28;20467;-81
2022/09/06 01:51:09;;;;;;;4.73;4.03;;;;;;;;;;5004721;28;20543;-82
2022/09/06 01:53:45;;;;;;;10.93;4.50;;;;;;;;;;5007292;28;20462;-80
2022/09/06 01:56:17;;;;;;;4.33;3.93;;;;;;;;;;5003021;28;20531;-81
2022/09/06 01:58:50;;;;;;;5.00;3.43;;;;;;;;;;4993985;28;20839;-80
2022/09/06 02:01:22;;;;;;;5.97;3.90;;;;;;;;;;5003523;28;20949;-81
2022/09/06 02:03:55;;;;;;;5.17;4.43;;;;;;;;;;4991711;28;20460;-85
2022/09/06 02:06:24;;;;;;;6.73;4.20;;;;;;;;;;4999780;28;20437;-79
2022/09/06 02:08:54;;;;;;;4.20;3.80;;;;;;;;;;4998957;28;20832;-82
2022/09/06 02:11:22;;;;;;;5.20;3.80;;;;;;;;;;4999671;28;20921;-85
2022/09/06 02:13:51;;;;;;;5.60;3.33;;;;;;;;;;5008371;28;20455;-79
2022/09/06 02:16:21;;;;;;;5.13;4.03;;;;;;;;;;5007098;28;21496;-80
2022/09/06 02:18:50;;;;;;;5.60;3.70;;;;;;;;;;4998214;28;20486;-79
2022/09/06 02:21:21;;;;;;;5.90;4.17;;;;;;;;;;4991242;28;21077;-79
2022/09/06 02:23:48;;;;;;;4.87;4.23;;;;;;;;;;4990779;28;20575;-79
2022/09/06 02:26:18;;;;;;;4.53;4.10;;;;;;;;;;4996740;28;20816;-84
2022/09/06 02:28:46;;;;;;;7.03;4.70;;;;;;;;;;5000555;28;20443;-85
2022/09/06 02:31:17;;;;;;;6.10;4.30;;;;;;;;;;5001400;28;20451;-83
2022/09/06 02:33:45;;;;;;;4.50;4.10;;;;;;;;;;5007203;28;20465;-80
2022/09/06 02:36:14;;;;;;;5.33;3.77;;;;;;;;;;4995572;28;20612;-81
2022/09/06 02:38:44;;;;;;;5.30;3.90;;;;;;;;;;4997860;28;20489;-81
2022/09/06 02:41:11;;;;;;;5.70;3.97;;;;;;;;;;4989261;28;20952;-80
2022/09/06 02:43:39;;;;;;;4.70;4.10;;;;;;;;;;4998528;28;20963;-81
2022/09/06 02:46:06;;;;;;;5.27;4.60;;;;;;;;;;4998842;28;20450;-82
2022/09/06 02:48:33;;;;;;;5.47;4.20;;;;;;;;;;4998240;28;20968;-81
2022/09/06 02:51:02;;;;;;;6.27;4.27;;;;;;;;;;5000768;28;20440;-83
2022/09/06 02:53:30;;;;;;;4.87;4.17;;;;;;;;;;4998705;28;20987;-78
2022/09/06 02:55:58;;;;;;;5.23;4.00;;;;;;;;;;5006509;28;20819;-81
2022/09/06 02:58:26;;;;;;;5.90;4.17;;;;;;;;;;5007458;28;20509;-80
2022/09/06 03:00:53;;;;;;;5.20;4.70;;;;;;;;;;5001352;28;20443;-81
2022/09/06 03:03:21;;;;;;;4.27;3.87;;;;;;;;;;5003237;28;20455;-80
2022/09/06 03:05:49;;;;;;;5.77;4.10;;;;;;;;;;4993222;28;20454;-81
2022/09/06 03:08:16;;;;;;;6.43;4.30;;;;;;;;;;4998678;28;20926;-81
2022/09/06 03:10:49;;;;;;;5.03;4.13;;;;;;;;;;4999279;28;20455;-81
2022/09/06 03:13:17;;;;;;;5.70;4.33;;;;;;;;;;5004086;28;21341;-84
2022/09/06 03:15:44;;;;;;;7.77;4.30;;;;;;;;;;5010000;28;20439;-81
2022/09/06 03:18:13;;;;;;;7.10;4.87;;;;;;;;;;5006192;28;20478;-82
2022/09/06 03:20:40;;;;;;;5.77;4.63;;;;;;;;;;5006573;28;20467;-79
2022/09/06 03:23:08;;;;;;;7.10;4.10;;;;;;;;;;4993434;28;20463;-80
2022/09/06 03:25:35;;;;;;;8.67;5.53;;;;;;;;;;5007316;28;20446;-83
2022/09/06 03:28:02;;;;;;;7.20;4.13;;;;;;;;;;4999045;28;20539;-85
2022/09/06 03:30:31;;;;;;;5.93;5.33;;;;;;;;;;4998438;28;20547;-82
2022/09/06 03:32:59;;;;;;;6.03;4.60;;;;;;;;;;4991068;28;20494;-83
2022/09/06 03:35:26;;;;;;;9.70;4.97;;;;;;;;;;4999473;28;20803;-81
2022/09/06 03:37:53;;;;;;;5.20;4.70;;;;;;;;;;5007845;28;20443;-82
2022/09/06 03:40:20;;;;;;;5.70;4.60;;;;;;;;;;5005485;28;21174;-78
2022/09/06 03:42:47;;;;;;;6.00;4.90;;;;;;;;;;5006284;28;20815;-80
2022/09/06 03:45:15;;;;;;;5.23;4.47;;;;;;;;;;4998110;28;20530;-81
2022/09/06 03:47:43;;;;;;;6.77;4.70;;;;;;;;;;4996286;28;20447;-80
2022/09/06 03:50:10;;;;;;;5.10;4.43;;;;;;;;;;5009126;28;20554;-84
2022/09/06 03:52:38;;;;;;;5.50;4.23;;;;;;;;;;4996655;28;20831;-81
2022/09/06 03:55:06;;;;;;;5.90;5.00;;;;;;;;;;4998748;28;20453;-82
2022/09/06 03:57:33;;;;;;;5.50;4.10;;;;;;;;;;5011013;28;20453;-80
2022/09/06 04:00:00;;;;;;;4.73;4.30;;;;;;;;;;4994963;28;20483;-81
2022/09/06 04:02:27;;;;;;;6.60;5.27;;;;;;;;;;5000563;28;20435;-78
2022/09/06 04:04:56;;;;;;;5.33;4.30;;;;;;;;;;5005640;28;20564;-82
2022/09/06 04:07:23;;;;;;;6.73;5.20;;;;;;;;;;4996534;28;20448;-78
2022/09/06 04:09:50;;;;;;;5.30;4.80;;;;;;;;;;4989618;28;20446;-82
2022/09/06 04:12:17;;;;;;;10.00;5.07;;;;;;;;;;5007780;28;20439;-79
2022/09/06 04:14:45;;;;;;;5.50;4.50;;;;;;;;;;4995492;28;20446;-78
2022/09/06 04:17:13;;;;;;;5.43;4.93;;;;;;;;;;4998581;28;20435;-83
2022/09/06 04:19:40;;;;;;;6.80;4.33;;;;;;;;;;4996102;28;20819;-81
2022/09/06 04:22:09;;;;;;;5.03;4.53;;;;;;;;;;4994464;28;20523;-80
2022/09/06 04:24:36;;;;;;;5.93;4.67;;;;;;;;;;5008506;28;20554;-82
2022/09/06 04:27:03;;;;;;;5.37;4.83;;;;;;;;;;5005100;28;20470;-81
2022/09/06 04:29:30;;;;;;;5.70;5.10;;;;;;;;;;5003467;28;20775;-81
2022/09/06 04:31:58;;;;;;;7.03;5.30;;;;;;;;;;4989507;28;20438;-83
2022/09/06 04:34:25;;;;;;;5.97;4.80;;;;;;;;;;5004878;28;20465;-81
2022/09/06 04:36:52;;;;;;;6.37;5.00;;;;;;;;;;4989418;28;20436;-82
2022/09/06 04:39:20;;;;;;;7.03;5.13;;;;;;;;;;4999273;28;21024;-82
2022/09/06 04:41:48;;;;;;;5.83;5.30;;;;;;;;;;5001230;28;20799;-79
2022/09/06 04:44:15;;;;;;;6.87;5.00;;;;;;;;;;5000854;28;20481;-78
2022/09/06 04:46:43;;;;;;;6.60;5.50;;;;;;;;;;4995925;28;20530;-82
2022/09/06 04:49:10;;;;;;;5.97;5.37;;;;;;;;;;5007891;28;20447;-85
2022/09/06 04:51:38;;;;;;;5.70;5.20;;;;;;;;;;5009556;28;20435;-81
2022/09/06 04:54:05;;;;;;;5.47;4.13;;;;;;;;;;4995751;28;20492;-82
2022/09/06 04:56:34;;;;;;;6.30;5.33;;;;;;;;;;5003512;28;20922;-80
2022/09/06 04:59:01;;;;;;;6.00;5.20;;;;;;;;;;5012679;28;20489;-84
2022/09/06 05:01:29;;;;;;;5.87;5.07;;;;;;;;;;5004026;28;20439;-82
2022/09/06 05:03:56;;;;;;;5.00;4.50;;;;;;;;;;4998290;28;20475;-81
2022/09/06 05:06:24;;;;;;;6.50;5.60;;;;;;;;;;5004209;28;20466;-82
2022/09/06 05:08:51;;;;;;;6.67;5.80;;;;;;;;;;5007061;28;20440;-80
2022/09/06 05:11:19;;;;;;;6.20;5.10;;;;;;;;;;5003794;28;20561;-84
2022/09/06 05:13:49;;;;;;;5.70;5.20;;;;;;;;;;5008142;28;20994;-80
2022/09/06 05:16:16;;;;;;;7.70;5.40;;;;;;;;;;4994505;28;20436;-85
2022/09/06 05:18:43;;;;;;;5.77;5.23;;;;;;;;;;5003318;28;21009;-79
2022/09/06 05:21:10;;;;;;;5.87;5.27;;;;;;;;;;5003863;28;20405;-81
2022/09/06 05:23:38;;;;;;;6.10;5.30;;;;;;;;;;4992950;28;20490;-82
2022/09/06 05:26:05;;;;;;;6.33;5.70;;;;;;;;;;4998513;28;20470;-86
2022/09/06 05:28:32;;;;;;;6.93;5.90;;;;;;;;;;5012148;28;20438;-81
2022/09/06 05:31:09;;;;;;;7.93;6.23;;;;;;;;;;5007476;28;20461;-78
2022/09/06 05:33:37;;;;;;;6.33;5.73;;;;;;;;;;5001905;28;20542;-82
2022/09/06 05:36:04;;;;;;;8.03;5.63;;;;;;;;;;5007829;28;20435;-81
2022/09/06 05:38:31;;;;;;;7.23;5.70;;;;;;;;;;5007303;28;20461;-78
2022/09/06 05:40:58;;;;;;;6.63;5.90;;;;;;;;;;4997447;28;20439;-85
2022/09/06 05:43:25;;;;;;;7.57;6.23;;;;;;;;;;5001453;28;20470;-82
2022/09/06 05:45:53;;;;;;;6.40;5.67;;;;;;;;;;4992842;28;20446;-79
2022/09/06 05:48:21;;;;;;;6.80;5.40;;;;;;;;;;4992435;28;20440;-79
2022/09/06 05:50:48;;;;;;;6.97;5.90;;;;;;;;;;4996193;28;20455;-78
2022/09/06 05:53:16;;;;;;;7.50;5.53;;;;;;;;;;4998203;28;20470;-79
2022/09/06 05:55:43;;;;;;;8.63;5.33;;;;;;;;;;5011342;28;20449;-79
2022/09/06 05:58:11;;;;;;;6.97;5.63;;;;;;;;;;5006761;28;20933;-83
2022/09/06 06:00:38;;;;;;;6.20;5.37;;;;;;;;;;5007528;28;20475;-79
2022/09/06 06:03:06;;;;;;;7.80;5.60;;;;;;;;;;5011613;28;20538;-82
2022/09/06 06:05:34;;;;;;;5.20;4.70;;;;;;;;;;5017896;28;20473;-80
2022/09/06 06:08:01;;;;;;;7.07;5.13;;;;;;;;;;5004264;28;20531;-82
2022/09/06 06:10:31;;;;;;;6.87;5.00;;;;;;;;;;4994244;28;20452;-82
2022/09/06 06:12:58;;;;;;;6.47;5.33;;;;;;;;;;4995165;28;20460;-84
2022/09/06 06:15:26;;;;;;;5.83;4.40;;;;;;;;;;5000298;28;20841;-82
2022/09/06 06:17:53;;;;;;;5.73;5.10;;;;;;;;;;5002890;28;20432;-81
2022/09/06 06:20:20;;;;;;;4.93;4.13;;;;;;;;;;5003767;28;20505;-82
2022/09/06 06:22:50;;;;;;;4.87;4.37;;;;;;;;;;5008168;28;20481;-79
2022/09/06 06:25:21;;;;;;;6.17;4.90;;;;;;;;;;5002864;28;20440;-83
2022/09/06 06:27:49;;;;;;;4.93;4.10;;;;;;;;;;4985723;28;20963;-81
2022/09/06 06:30:16;;;;;;;5.10;4.70;;;;;;;;;;4983248;28;20442;-81
2022/09/06 06:32:43;;;;;;;4.57;4.17;;;;;;;;;;4983430;28;20468;-80
2022/09/06 06:35:13;;;;;;;6.30;4.30;;;;;;;;;;4973471;28;20960;-84
2022/09/06 06:37:41;;;;;;;5.20;4.70;;;;;;;;;;4979110;28;20440;-81
2022/09/06 06:40:10;;;;;;;5.40;4.60;;;;;;;;;;4983479;28;20590;-86
2022/09/06 06:42:37;;;;;;;9.60;4.30;;;;;;;;;;4978970;28;20496;-82
2022/09/06 06:45:05;;;;;;;7.23;4.70;;;;;;;;;;4986849;28;20442;-83
2022/09/06 06:47:33;;;;;;;5.30;4.80;;;;;;;;;;4987703;28;20825;-80
2022/09/06 06:50:01;;;;;;;7.10;5.10;;;;;;;;;;4990306;28;20454;-83
2022/09/06 06:52:28;;;;;;;7.73;4.70;;;;;;;;;;4980251;28;20952;-82
2022/09/06 06:54:55;;;;;;;6.63;4.60;;;;;;;;;;4971561;28;20437;-80
2022/09/06 06:57:23;;;;;;;6.20;3.60;;;;;;;;;;4972242;28;20975;-80
2022/09/06 06:59:53;;;;;;;8.10;4.20;;;;;;;;;;4982469;28;20498;-81
2022/09/06 07:02:20;;;;;;;5.40;3.80;;;;;;;;;;4986926;28;20452;-81
2022/09/06 07:04:48;;;;;;;5.10;3.80;;;;;;;;;;4984751;28;20443;-83
2022/09/06 07:07:15;;;;;;;6.83;4.10;;;;;;;;;;4977520;28;20795;-83
2022/09/06 07:09:42;;;;;;;6.30;4.20;;;;;;;;;;4979548;28;20960;-86
2022/09/06 07:12:11;;;;;;;4.93;4.00;;;;;;;;;;4976216;28;21039;-83
2022/09/06 07:14:40;;;;;;;5.00;3.70;;;;;;;;;;4982251;28;20826;-90
2022/09/06 07:17:07;;;;;;;6.10;3.77;;;;;;;;;;4978871;28;20461;-85
2022/09/06 07:19:34;;;;;;;4.40;3.50;;;;;;;;;;4980904;28;20492;-82
2022/09/06 07:22:01;;;;;;;3.80;3.50;;;;;;;;;;4983041;28;20441;-91
2022/09/06 07:24:29;;;;;;;3.57;3.20;;;;;;;;;;4987268;28;20464;-83
2022/09/06 07:26:56;;;;;;;4.10;3.30;;;;;;;;;;4998576;28;20879;-86
2022/09/06 07:29:23;;;;;;;6.47;3.30;;;;;;;;;;4996792;28;20456;-81
2022/09/06 07:31:55;;;;;;;3.50;2.70;;;;;;;;;;4989714;28;20456;-80
2022/09/06 07:34:24;;;;;;;4.47;3.03;;;;;;;;;;5001136;28;21053;-81
2022/09/06 07:36:52;;;;;;;3.90;3.30;;;;;;;;;;5001844;28;20443;-86
2022/09/06 07:39:20;;;;;;;4.57;3.07;;;;;;;;;;4990577;28;20487;-78
2022/09/06 07:41:47;;;;;;;2.70;2.50;;;;;;;;;;5000302;28;20447;-83
2022/09/06 07:44:14;;;;;;;3.37;3.07;;;;;;;;;;5007631;28;20459;-81
2022/09/06 07:46:41;;;;;;;3.60;3.20;;;;;;;;;;4999063;28;20439;-80
2022/09/06 07:49:10;;;;;;;5.30;3.07;;;;;;;;;;5005727;28;20439;-80
2022/09/06 07:51:37;;;;;;;5.43;2.77;;;;;;;;;;5006839;28;20538;-78
2022/09/06 07:54:05;;;;;;;5.57;2.73;;;;;;;;;;5001550;28;20541;-81
2022/09/06 07:56:32;;;;;;;4.23;2.40;;;;;;;;;;5000357;28;20525;-82
2022/09/06 07:59:00;;;;;;;3.93;2.90;;;;;;;;;;5003659;28;20471;-81
2022/09/06 08:01:28;;;;;;;14.60;3.20;;;;;;;;;;4998996;28;20489;-88
2022/09/06 08:03:56;;;;;;;3.67;2.60;;;;;;;;;;4993171;28;20515;-85
2022/09/06 08:06:25;;;;;;;4.10;2.50;;;;;;;;;;4999623;28;20450;-81
2022/09/06 08:08:53;;;;;;;3.50;2.43;;;;;;;;;;5000652;28;20439;-83
2022/09/06 08:11:20;;;;;;;2.93;2.60;;;;;;;;;;5005502;28;20435;-79
2022/09/06 08:13:49;;;;;;;3.73;2.50;;;;;;;;;;5004058;28;20812;-83
2022/09/06 08:16:17;;;;;;;6.23;2.70;;;;;;;;;;4988079;28;20454;-84
2022/09/06 08:18:44;;;;;;;4.03;2.40;;;;;;;;;;4999031;28;20439;-82
2022/09/06 08:21:12;;;;;;;4.43;2.03;;;;;;;;;;4995172;28;20894;-88
2022/09/06 08:23:42;;;;;;;3.57;2.40;;;;;;;;;;5002036;28;20564;-83
2022/09/06 08:26:09;;;;;;;2.33;1.87;;;;;;;;;;5011797;28;20556;-84
2022/09/06 08:28:37;;;;;;;5.40;2.50;;;;;;;;;;4998775;28;20452;-86
2022/09/06 08:31:06;;;;;;;3.17;2.63;;;;;;;;;;5002120;28;20440;-83
2022/09/06 08:33:33;;;;;;;3.50;2.50;;;;;;;;;;5004843;28;20809;-88
2022/09/06 08:36:00;;;;;;;3.63;2.20;;;;;;;;;;5008928;28;20434;-82
2022/09/06 08:38:28;;;;;;;2.53;2.03;;;;;;;;;;5003499;28;20543;-84
2022/09/06 08:41:09;;;;;;;2.67;1.87;;;;;;;;;;5001546;28;20533;-81
2022/09/06 08:43:36;;;;;;;3.20;1.87;;;;;;;;;;4992648;28;20832;-80
2022/09/06 08:46:04;;;;;;;5.67;2.33;;;;;;;;;;5004054;28;20442;-82
2022/09/06 08:48:34;;;;;;;3.90;2.37;;;;;;;;;;4998069;28;20483;-79
2022/09/06 08:51:08;;;;;;;3.90;2.40;;;;;;;;;;5002811;28;20443;-82
2022/09/06 08:53:37;;;;;;;2.20;2.00;;;;;;;;;;5007956;28;20454;-86
2022/09/06 08:56:13;;;;;;;4.20;2.53;;;;;;;;;;5001933;28;20794;-81
2022/09/06 08:58:48;;;;;;;3.23;2.20;;;;;;;;;;5007233;28;20518;-81
2022/09/06 09:01:18;;;;;;;2.37;2.17;;;;;;;;;;5002258;28;20569;-85
2022/09/06 09:03:47;;;;;;;3.27;2.03;;;;;;;;;;4997025;28;20573;-82
2022/09/06 09:06:14;;;;;;;2.23;2.07;;;;;;;;;;5010426;28;20431;-82
2022/09/06 09:08:45;;;;;;;3.83;2.07;;;;;;;;;;5011958;28;20849;-82
2022/09/06 09:11:15;;;;;;;4.70;2.17;;;;;;;;;;4995988;28;20471;-82
2022/09/06 09:13:48;;;;;;;2.33;1.90;;;;;;;;;;5004613;28;20467;-85
2022/09/06 09:16:15;;;;;;;3.17;2.17;;;;;;;;;;5003787;28;20902;-87
2022/09/06 09:18:44;;;;;;;2.40;1.83;;;;;;;;;;4997020;28;20439;-83
2022/09/06 09:21:12;;;;;;;5.33;1.97;;;;;;;;;;5006604;28;20475;-83
2022/09/06 09:23:39;;;;;;;2.43;1.93;;;;;;;;;;5008253;28;20995;-83
2022/09/06 09:26:07;;;;;;;2.00;1.80;;;;;;;;;;5002146;28;20557;-85
2022/09/06 09:28:36;;;;;;;1.70;1.60;;;;;;;;;;5006190;28;20447;-84
2022/09/06 09:31:03;;;;;;;2.00;1.83;;;;;;;;;;4997879;28;20541;-88
2022/09/06 09:33:34;;;;;;;3.30;2.13;;;;;;;;;;4989839;28;20463;-81
2022/09/06 09:36:05;;;;;;;2.23;2.00;;;;;;;;;;4992071;28;20488;-80
2022/09/06 09:38:35;;;;;;;2.57;1.90;;;;;;;;;;5001102;28;20444;-80
2022/09/06 09:41:04;;;;;;;2.63;1.93;;;;;;;;;;4999255;28;20486;-81
2022/09/06 09:43:32;;;;;;;1.87;1.50;;;;;;;;;;5007029;28;20455;-82
2022/09/06 09:46:14;;;;;;;3.07;1.57;;;;;;;;;;5006766;28;20450;-82
2022/09/06 09:48:47;;;;;;;2.40;1.90;;;;;;;;;;4990556;28;20443;-82
2022/09/06 09:51:18;;;;;;;2.10;1.90;;;;;;;;;;4998038;28;20513;-83
2022/09/06 09:53:50;;;;;;;2.50;1.67;;;;;;;;;;4989561;28;20831;-86
2022/09/06 09:56:17;;;;;;;2.10;1.83;;;;;;;;;;5005349;28;20440;-83
2022/09/06 09:58:44;;;;;;;2.20;1.80;;;;;;;;;;5002324;28;20522;-88
2022/09/06 10:01:13;;;;;;;1.67;1.33;;;;;;;;;;4997869;28;20482;-85
2022/09/06 10:03:40;;;;;;;4.23;1.63;;;;;;;;;;4994901;28;20463;-87
2022/09/06 10:06:12;;;;;;;2.73;1.67;;;;;;;;;;5012181;28;20452;-84
2022/09/06 10:08:42;;;;;;;2.53;1.87;;;;;;;;;;5006123;28;20558;-84
2022/09/06 10:11:12;;;;;;;1.63;1.53;;;;;;;;;;4995564;28;20452;-84
2022/09/06 10:13:40;;;;;;;2.50;2.30;;;;;;;;;;4998159;28;20459;-82
2022/09/06 10:16:08;;;;;;;2.20;1.47;;;;;;;;;;4990546;28;20440;-84
2022/09/06 10:18:36;;;;;;;2.03;1.70;;;;;;;;;;5006164;28;20431;-81
2022/09/06 10:21:08;;;;;;;2.20;1.60;;;;;;;;;;4996514;28;20475;-81
2022/09/06 10:23:42;;;;;;;2.50;2.30;;;;;;;;;;4999775;28;20981;-83
2022/09/06 10:26:10;;;;;;;2.20;2.00;;;;;;;;;;4965251;28;1103442;-83
2022/09/06 10:28:40;;;;;;;2.73;1.90;;;;;;;;;;4990318;28;20456;-81
2022/09/06 10:31:26;;;;;;;2.13;1.63;;;;;;;;;;4991755;28;20443;-84
2022/09/06 10:33:59;;;;;;;2.57;1.57;;;;;;;;;;4989928;28;20805;-88
2022/09/06 10:36:30;;;;;;;2.10;1.90;;;;;;;;;;5006983;28;20443;-88
2022/09/06 10:39:01;;;;;;;2.90;2.10;;;;;;;;;;5003410;28;20558;-85
2022/09/06 10:41:43;;;;;;;1.53;1.43;;;;;;;;;;4987328;28;20478;-86
2022/09/06 10:44:16;;;;;;;2.87;1.70;;;;;;;;;;4988282;28;20463;-86
2022/09/06 10:46:45;;;;;;;2.50;1.80;;;;;;;;;;4999747;28;20443;-84
2022/09/06 10:49:14;;;;;;;1.90;1.60;;;;;;;;;;5002206;28;20450;-86
2022/09/06 10:51:44;;;;;;;2.97;1.50;;;;;;;;;;4996931;28;20447;-86
2022/09/06 10:54:14;;;;;;;1.50;1.40;;;;;;;;;;4994481;28;20817;-87
2022/09/06 10:56:44;;;;;;;2.70;1.77;;;;;;;;;;4993388;28;20482;-88
2022/09/06 10:59:20;;;;;;;3.57;1.80;;;;;;;;;;4997251;28;20447;-88
2022/09/06 11:04:44;;;;;;;2.57;1.50;;;;;;;;;;4967081;23;20488;-84
2022/09/06 11:07:13;;;;;;;2.37;1.90;;;;;;;;;;4959298;28;20539;-89
2022/09/06 11:09:45;;;;;;;1.90;1.80;;;;;;;;;;4958097;28;20449;-88
2022/09/06 11:12:14;;;;;;;1.70;1.60;;;;;;;;;;4963582;28;20449;-87
2022/09/06 11:14:43;;;;;;;5.20;1.70;;;;;;;;;;4938080;29;20447;-86
2022/09/06 11:17:13;;;;;;;1.80;1.70;;;;;;;;;;4928247;29;20446;-85
2022/09/06 11:19:43;;;;;;;3.33;1.70;;;;;;;;;;4937678;28;20529;-88
2022/09/06 11:22:29;;;;;;;3.10;1.80;;;;;;;;;;4939173;28;20991;-88
2022/09/06 11:25:10;;;;;;;2.67;1.67;;;;;;;;;;4928934;29;20453;-87
2022/09/06 11:27:39;;;;;;;2.07;1.50;;;;;;;;;;4938042;29;20455;-87
2022/09/06 11:30:07;;;;;;;1.97;1.63;;;;;;;;;;4918005;29;20542;-88
2022/09/06 11:32:38;;;;;;;3.70;1.87;;;;;;;;;;4937334;29;20465;-83
2022/09/06 11:35:08;;;;;;;2.57;2.30;;;;;;;;;;4946763;29;20430;-86
2022/09/06 11:37:39;;;;;;;2.17;1.90;;;;;;;;;;4932305;28;20445;-87
2022/09/06 11:40:16;;;;;;;3.40;2.10;;;;;;;;;;4950856;28;20448;-84
2022/09/06 11:43:17;;;;;;;;;;;;;;;;;;;;;
2022/09/06 11:45:46;;;;;;;2.13;1.77;;;;;;;;;;4920097;29;20440;-85
2022/09/06 11:48:33;;;;;;;2.40;1.83;;;;;;;;;;4914672;29;20458;-91
2022/09/06 11:51:05;;;;;;;2.03;1.40;;;;;;;;;;4928043;29;20489;-85
2022/09/06 12:07:24;;;;;;;3.57;2.30;;;;;;;;;;4964295;23;20572;-83
2022/09/06 12:10:03;;;;;;;3.53;1.80;;;;;;;;;;4937772;29;20448;-92
2022/09/06 12:12:47;;;;;;;2.80;1.60;;;;;;;;;;4923470;29;20458;-89
2022/09/06 12:25:04;;;;;;;2.70;1.63;;;;;;;;;;5565019;23;20484;-84
2022/09/06 12:33:59;;;;;;;2.60;2.00;;;;;;;;;;5393541;23;22931;-86
2022/09/06 12:36:29;;;;;;;3.10;1.80;;;;;;;;;;4987008;28;20439;-86
2022/09/06 12:48:52;;;;;;;2.70;1.70;;;;;;;;;;4910151;29;20467;-85
2022/09/06 13:17:00;;;;;;;;;;;;;;;;;;;;;
2022/09/06 13:25:14;;;;;;;4.23;1.83;;;;;;;;;;4995191;23;20845;-85
2022/09/06 13:33:59;;;;;;;1.97;1.60;;;;;;;;;;4939176;28;20468;-92
2022/09/06 13:36:59;;;;;;;1.83;1.63;;;;;;;;;;4930488;29;20995;-87
2022/09/06 13:39:31;;;;;;;2.93;1.80;;;;;;;;;;4872909;29;20466;-85
2022/09/06 13:42:01;;;;;;;3.57;1.60;;;;;;;;;;4853005;29;20473;-90
2022/09/06 13:44:29;;;;;;;2.77;1.67;;;;;;;;;;4925730;28;20474;-89
2022/09/06 13:46:57;;;;;;;3.40;1.80;;;;;;;;;;4991139;28;20445;-89
2022/09/06 13:49:26;;;;;;;4.70;1.90;;;;;;;;;;4988027;28;20454;-86
2022/09/06 13:51:55;;;;;;;2.37;1.97;;;;;;;;;;4989815;28;20432;-90
2022/09/06 13:54:22;;;;;;;4.20;1.63;;;;;;;;;;4986103;28;20469;-91
2022/09/06 13:56:49;;;;;;;1.80;1.70;;;;;;;;;;4982162;28;20440;-86
2022/09/06 13:59:17;;;;;;;2.50;1.83;;;;;;;;;;4980071;28;20452;-88
2022/09/06 14:01:45;;;;;;;2.10;1.70;;;;;;;;;;4983794;28;20471;-84
2022/09/06 14:04:14;;;;;;;2.10;1.60;;;;;;;;;;4978132;28;20551;-86
2022/09/06 14:06:45;;;;;;;1.70;1.60;;;;;;;;;;4985746;28;20457;-86
2022/09/06 14:09:12;;;;;;;1.80;1.40;;;;;;;;;;4986865;28;20458;-87
2022/09/06 14:11:41;;;;;;;2.83;2.00;;;;;;;;;;4992526;28;21278;-86
2022/09/06 14:14:11;;;;;;;3.17;1.90;;;;;;;;;;4989352;28;20470;-88
2022/09/06 14:16:38;;;;;;;2.90;2.00;;;;;;;;;;4988334;28;20444;-86
2022/09/06 14:19:06;;;;;;;3.20;1.80;;;;;;;;;;4975571;28;21532;-85
2022/09/06 14:21:35;;;;;;;2.10;1.73;;;;;;;;;;4984887;28;20522;-88
2022/09/06 14:24:04;;;;;;;2.50;1.70;;;;;;;;;;4980810;28;20758;-90
2022/09/06 14:26:31;;;;;;;4.67;1.87;;;;;;;;;;4988653;28;20969;-86
2022/09/06 14:28:59;;;;;;;2.20;1.70;;;;;;;;;;4983053;28;20893;-89
2022/09/06 14:31:31;;;;;;;3.07;1.60;;;;;;;;;;4980803;28;20534;-89
2022/09/06 14:34:01;;;;;;;1.87;1.60;;;;;;;;;;4983880;28;20472;-89
2022/09/06 14:36:30;;;;;;;3.10;1.77;;;;;;;;;;4989578;28;20499;-89
2022/09/06 14:38:58;;;;;;;2.50;1.50;;;;;;;;;;4990708;28;20452;-88
2022/09/06 14:41:29;;;;;;;3.47;1.70;;;;;;;;;;4994568;28;20476;-86
2022/09/06 14:55:41;;;;;;;1.70;1.60;;;;;;;;;;5461068;23;20524;-86
2022/09/06 14:58:23;;;;;;;2.20;1.53;;;;;;;;;;4937634;29;20730;-86
2022/09/06 15:00:53;;;;;;;2.80;1.83;;;;;;;;;;4938802;29;20447;-90
2022/09/06 15:09:06;;;;;;;2.67;1.37;;;;;;;;;;4953525;28;20471;-86
2022/09/06 15:11:35;;;;;;;3.27;1.73;;;;;;;;;;4984947;28;20519;-89
2022/09/06 15:14:23;;;;;;;2.80;2.07;;;;;;;;;;4974409;28;20467;-93
2022/09/06 15:16:56;;;;;;;2.27;1.60;;;;;;;;;;4953584;28;20445;-87
2022/09/06 15:19:27;;;;;;;2.17;1.50;;;;;;;;;;4954446;28;20499;-85
2022/09/06 15:22:00;;;;;;;3.50;1.30;;;;;;;;;;4957324;28;20476;-86
2022/09/06 15:24:31;;;;;;;2.23;1.60;;;;;;;;;;4972551;28;20516;-88
2022/09/06 15:27:01;;;;;;;4.10;1.47;;;;;;;;;;4975297;28;20476;-90
2022/09/06 15:32:35;;;;;;;1.60;1.50;;;;;;;;;;4919895;28;20457;-87
2022/09/06 15:35:02;;;;;;;1.60;1.40;;;;;;;;;;4976520;28;20441;-85
2022/09/06 15:37:30;;;;;;;1.80;1.50;;;;;;;;;;4977760;28;20512;-87
2022/09/06 15:39:57;;;;;;;1.43;1.30;;;;;;;;;;4974091;28;20504;-87
2022/09/06 15:42:25;;;;;;;5.50;1.60;;;;;;;;;;4974343;28;20908;-86
2022/09/06 15:44:55;;;;;;;2.70;1.50;;;;;;;;;;4975268;28;21267;-88
2022/09/06 15:47:22;;;;;;;1.80;1.30;;;;;;;;;;4975282;28;20449;-88
2022/09/06 15:49:51;;;;;;;3.03;1.20;;;;;;;;;;4974583;28;20790;-86
2022/09/06 15:52:21;;;;;;;2.17;1.40;;;;;;;;;;4972227;28;20448;-87
2022/09/06 15:57:31;;;;;;;1.87;1.53;;;;;;;;;;4957787;28;20471;-89
2022/09/06 15:59:59;;;;;;;1.87;1.63;;;;;;;;;;4973527;28;20925;-85
2022/09/06 16:02:26;;;;;;;3.30;1.47;;;;;;;;;;4967866;28;20511;-82
2022/09/06 16:04:55;;;;;;;4.90;1.80;;;;;;;;;;4968142;28;20472;-87
2022/09/06 16:07:24;;;;;;;2.70;1.90;;;;;;;;;;4970481;28;20491;-85
2022/09/06 16:09:51;;;;;;;1.70;1.60;;;;;;;;;;4970739;28;21188;-85
2022/09/06 16:12:26;;;;;;;1.83;1.40;;;;;;;;;;4971506;28;20831;-85
2022/09/06 16:14:56;;;;;;;1.80;1.57;;;;;;;;;;4971503;28;20449;-85
2022/09/06 16:17:26;;;;;;;1.60;1.50;;;;;;;;;;4970420;28;20468;-88
2022/09/06 16:20:06;;;;;;;1.97;1.43;;;;;;;;;;4965988;28;20441;-88
2022/09/06 16:22:42;;;;;;;1.63;1.23;;;;;;;;;;4964597;28;20962;-87
2022/09/06 16:31:21;;;;;;;2.20;1.40;;;;;;;;;;4898511;29;20426;-86
2022/09/06 16:34:06;;;;;;;2.27;1.40;;;;;;;;;;4905892;29;21054;-88
2022/09/06 16:36:35;;;;;;;1.70;1.50;;;;;;;;;;4889121;29;20471;-85
2022/09/06 16:39:32;;;;;;;;;;;;;;;;;;;;;
2022/09/06 16:42:01;;;;;;;1.60;1.30;;;;;;;;;;4968917;28;20522;-87
2022/09/06 16:44:30;;;;;;;1.93;1.73;;;;;;;;;;4971658;28;20464;-86
2022/09/06 16:47:04;;;;;;;2.33;1.63;;;;;;;;;;4969795;28;20523;-88
2022/09/06 16:49:33;;;;;;;2.00;1.80;;;;;;;;;;4971191;28;20463;-87